createdAt,value
2023-03-03T00:01:48.604Z,4.22
2023-03-03T00:04:16.124Z,4.43
2023-03-03T00:06:45.782Z,4.75
2023-03-03T00:09:13.360Z,4.45
2023-03-03T00:11:46.084Z,4.38
2023-03-03T00:14:29.345Z,4.38
2023-03-03T00:16:57.483Z,4.45
2023-03-03T00:19:25.083Z,4.85
2023-03-03T00:21:53.349Z,5.70
2023-03-03T00:24:31.107Z,4.93
2023-03-03T00:27:05.103Z,4.53
2023-03-03T00:29:48.438Z,4.03
2023-03-03T00:32:15.921Z,3.58
2023-03-03T00:34:44.667Z,4.70
2023-03-03T00:37:31.047Z,4.22
2023-03-03T00:40:09.993Z,5.50
2023-03-03T00:42:37.669Z,7.25
2023-03-03T00:45:24.270Z,5.60
2023-03-03T00:47:52.073Z,4.60
2023-03-03T00:50:32.623Z,3.58
2023-03-03T00:53:04.381Z,3.97
2023-03-03T00:55:33.942Z,4.38
2023-03-03T00:58:04.690Z,4.10
2023-03-03T01:00:38.002Z,4.05
2023-03-03T01:03:10.466Z,4.65
2023-03-03T01:05:39.445Z,5.03
2023-03-03T01:08:07.742Z,4.88
2023-03-03T01:10:53.274Z,3.92
2023-03-03T01:13:32.535Z,3.83
2023-03-03T01:16:01.940Z,4.45
2023-03-03T01:18:30.650Z,4.78
2023-03-03T01:20:58.504Z,5.28
2023-03-03T01:23:28.035Z,5.00
2023-03-03T01:25:55.921Z,5.18
2023-03-03T01:28:23.462Z,5.22
2023-03-03T01:33:21.413Z,6.00
2023-03-03T01:35:50.622Z,6.28
2023-03-03T01:38:18.242Z,5.70
2023-03-03T01:40:54.048Z,5.07
2023-03-03T01:43:22.966Z,4.45
2023-03-03T01:45:50.736Z,4.93
2023-03-03T01:48:42.203Z,5.18
2023-03-03T01:51:20.769Z,5.15
2023-03-03T01:53:57.433Z,4.43
2023-03-03T01:56:26.962Z,4.85
2023-03-03T01:59:04.288Z,4.80
2023-03-03T02:01:33.530Z,4.70
2023-03-03T02:04:01.724Z,5.07
2023-03-03T02:06:42.029Z,5.38
2023-03-03T02:09:27.838Z,4.63
2023-03-03T02:12:00.262Z,5.25
2023-03-03T02:14:28.073Z,5.75
2023-03-03T02:16:55.683Z,5.78
2023-03-03T02:19:41.533Z,5.57
2023-03-03T02:22:11.720Z,6.20
2023-03-03T02:24:45.586Z,6.57
2023-03-03T02:27:14.647Z,6.00
2023-03-03T02:29:44.540Z,6.05
2023-03-03T02:32:12.312Z,5.82
2023-03-03T02:34:50.567Z,6.15
2023-03-03T02:37:19.115Z,6.10
2023-03-03T02:39:46.813Z,6.43
2023-03-03T02:42:22.025Z,6.22
2023-03-03T02:44:53.993Z,7.32
2023-03-03T02:47:21.632Z,6.57
2023-03-03T02:49:49.310Z,6.97
2023-03-03T02:52:19.214Z,7.28
2023-03-03T02:57:16.080Z,8.07
2023-03-03T02:59:43.719Z,8.32
2023-03-03T03:02:14.254Z,9.18
2023-03-03T03:04:43.610Z,9.32
2023-03-03T03:07:22.343Z,11.65
2023-03-03T03:09:51.036Z,10.37
2023-03-03T03:12:19.472Z,10.15
2023-03-03T03:14:48.907Z,10.73
2023-03-03T03:17:16.487Z,12.00
2023-03-03T03:19:44.032Z,12.18
2023-03-03T03:22:11.769Z,12.18
2023-03-03T03:24:39.350Z,10.15
2023-03-03T03:27:09.427Z,9.60
2023-03-03T03:29:38.740Z,8.88
2023-03-03T03:32:06.993Z,8.07
2023-03-03T03:34:35.114Z,7.78
2023-03-03T03:37:02.676Z,7.20
2023-03-03T03:39:50.393Z,7.38
2023-03-03T03:42:20.182Z,7.50
2023-03-03T03:44:48.446Z,7.30
2023-03-03T03:49:45.861Z,7.50
2023-03-03T03:52:14.197Z,7.32
2023-03-03T03:54:42.305Z,7.50
2023-03-03T03:57:10.055Z,7.45
2023-03-03T03:59:57.832Z,7.65
2023-03-03T04:02:27.327Z,7.90
2023-03-03T04:04:55.057Z,7.80
2023-03-03T04:07:22.585Z,7.70
2023-03-03T04:09:50.231Z,7.72
2023-03-03T04:12:18.123Z,7.70
2023-03-03T04:17:21.287Z,9.52
2023-03-03T04:19:49.485Z,13.13
2023-03-03T04:22:17.428Z,11.75
2023-03-03T04:24:45.154Z,9.57
2023-03-03T04:27:13.500Z,9.30
2023-03-03T04:29:43.725Z,8.73
2023-03-03T04:32:11.344Z,8.90
2023-03-03T04:34:39.511Z,9.20
2023-03-03T04:37:07.321Z,9.57
2023-03-03T04:39:36.774Z,9.57
2023-03-03T04:42:04.828Z,9.55
2023-03-03T04:44:32.543Z,10.82
2023-03-03T04:47:00.166Z,10.70
2023-03-03T04:49:28.723Z,11.80
2023-03-03T04:51:56.947Z,10.60
2023-03-03T04:54:24.598Z,8.73
2023-03-03T04:56:52.541Z,9.52
2023-03-03T04:59:20.510Z,9.75
2023-03-03T05:01:48.230Z,8.70
2023-03-03T05:04:15.924Z,10.27
2023-03-03T05:06:45.210Z,10.00
2023-03-03T05:09:13.182Z,10.73
2023-03-03T05:11:40.725Z,10.07
2023-03-03T05:14:08.495Z,9.73
2023-03-03T05:16:36.553Z,10.68
2023-03-03T05:19:04.141Z,11.60
2023-03-03T05:21:31.820Z,11.23
2023-03-03T05:23:59.543Z,12.73
2023-03-03T05:26:27.049Z,13.15
2023-03-03T05:28:54.537Z,13.23
2023-03-03T05:31:22.392Z,13.95
2023-03-03T05:33:50.368Z,15.52
2023-03-03T05:36:18.050Z,14.45
2023-03-03T05:38:46.693Z,14.00
2023-03-03T05:41:14.361Z,13.85
2023-03-03T05:43:44.596Z,15.52
2023-03-03T05:46:12.399Z,15.50
2023-03-03T05:48:40.339Z,15.18
2023-03-03T05:51:07.941Z,15.05
2023-03-03T05:53:35.635Z,15.85
2023-03-03T05:56:03.485Z,15.40
2023-03-03T05:58:31.099Z,15.00
2023-03-03T06:00:59.905Z,15.98
2023-03-03T06:03:27.516Z,14.73
2023-03-03T06:05:56.593Z,15.43
2023-03-03T06:08:24.370Z,14.52
2023-03-03T06:10:51.907Z,12.35
2023-03-03T06:13:19.465Z,12.52
2023-03-03T06:15:47.303Z,12.27
2023-03-03T06:18:16.336Z,12.05
2023-03-03T06:20:43.959Z,12.43
2023-03-03T06:23:11.657Z,11.18
2023-03-03T06:25:40.029Z,11.13
2023-03-03T06:28:07.636Z,11.20
2023-03-03T06:30:35.458Z,10.38
2023-03-03T06:33:02.966Z,10.57
2023-03-03T06:35:30.610Z,11.65
2023-03-03T06:37:58.201Z,11.60
2023-03-03T06:40:25.935Z,11.45
2023-03-03T06:42:55.526Z,11.95
2023-03-03T06:45:23.472Z,10.82
2023-03-03T06:47:51.014Z,10.00
2023-03-03T06:50:21.514Z,9.32
2023-03-03T06:53:05.394Z,11.88
2023-03-03T06:55:33.714Z,10.90
2023-03-03T06:58:16.350Z,10.55
2023-03-03T07:00:57.196Z,11.32
2023-03-03T07:03:29.709Z,12.65
2023-03-03T07:05:57.496Z,13.55
2023-03-03T07:08:26.018Z,15.40
2023-03-03T07:10:54.914Z,15.82
2023-03-03T07:13:28.367Z,13.98
2023-03-03T07:15:59.674Z,14.05
2023-03-03T07:18:34.326Z,14.45
2023-03-03T07:21:30.510Z,17.20
2023-03-03T07:24:00.267Z,15.48
2023-03-03T07:26:33.268Z,17.73
2023-03-03T07:29:04.476Z,16.13
2023-03-03T07:31:40.344Z,16.63
2023-03-03T07:34:22.399Z,17.58
2023-03-03T07:36:53.823Z,15.88
2023-03-03T07:39:40.648Z,16.77
2023-03-03T07:42:23.487Z,18.23
2023-03-03T07:45:02.006Z,16.88
2023-03-03T07:47:37.344Z,16.15
2023-03-03T07:50:19.455Z,18.33
2023-03-03T07:52:58.883Z,18.73
2023-03-03T07:55:40.084Z,20.90
2023-03-03T07:58:14.856Z,19.95
2023-03-03T08:00:45.715Z,20.73
2023-03-03T08:03:18.202Z,19.15
2023-03-03T08:05:51.425Z,19.63
2023-03-03T08:08:31.339Z,16.92
2023-03-03T08:11:00.256Z,14.77
2023-03-03T08:13:34.957Z,13.65
2023-03-03T08:16:24.776Z,13.75
2023-03-03T08:21:23.498Z,12.63
2023-03-03T08:23:53.366Z,11.95
2023-03-03T08:26:22.213Z,11.80
2023-03-03T08:28:51.350Z,12.30
2023-03-03T08:31:39.921Z,11.85
2023-03-03T08:34:09.848Z,11.93
2023-03-03T08:36:38.122Z,12.20
2023-03-03T08:39:06.084Z,11.88
2023-03-03T08:41:33.742Z,13.18
2023-03-03T08:44:01.644Z,13.40
2023-03-03T08:46:29.575Z,12.85
2023-03-03T08:48:58.648Z,12.63
2023-03-03T08:51:26.682Z,12.77
2023-03-03T08:53:54.258Z,13.50
2023-03-03T08:56:21.851Z,14.15
2023-03-03T08:59:01.587Z,13.48
2023-03-03T09:01:33.321Z,13.75
2023-03-03T09:04:01.356Z,13.93
2023-03-03T09:06:29.171Z,14.32
2023-03-03T09:08:57.495Z,14.77
2023-03-03T09:11:29.314Z,14.32
2023-03-03T09:14:12.158Z,13.85
2023-03-03T09:16:45.660Z,15.00
2023-03-03T09:19:36.129Z,14.43
2023-03-03T09:22:25.578Z,14.75
2023-03-03T09:24:59.142Z,13.65
2023-03-03T09:27:31.349Z,13.98
2023-03-03T09:30:12.691Z,13.98
2023-03-03T09:32:40.549Z,14.10
2023-03-03T09:35:37.969Z,13.60
2023-03-03T09:38:18.249Z,14.10
2023-03-03T09:41:10.383Z,13.60
2023-03-03T09:43:51.494Z,14.55
2023-03-03T09:46:46.038Z,14.00
2023-03-03T09:49:18.990Z,15.43
2023-03-03T09:51:56.999Z,14.45
2023-03-03T09:54:39.466Z,13.48
2023-03-03T09:58:10.029Z,13.65
2023-03-03T10:01:03.627Z,12.70
2023-03-03T10:03:34.976Z,13.85
2023-03-03T10:06:18.083Z,11.15
2023-03-03T10:08:58.318Z,10.32
2023-03-03T10:11:47.741Z,11.13
2023-03-03T10:14:28.118Z,11.13
2023-03-03T10:17:48.654Z,12.32
2023-03-03T10:20:40.500Z,11.17
2023-03-03T10:23:43.285Z,10.35
2023-03-03T10:26:25.105Z,10.23
2023-03-03T10:29:29.182Z,10.15
2023-03-03T10:32:26.613Z,9.32
2023-03-03T10:35:15.539Z,9.82
2023-03-03T10:38:21.907Z,10.23
2023-03-03T10:40:55.680Z,10.60
2023-03-03T10:43:48.355Z,11.23
2023-03-03T10:46:35.885Z,11.73
2023-03-03T10:49:18.909Z,11.00
2023-03-03T10:51:55.728Z,10.75
2023-03-03T10:54:38.026Z,11.30
2023-03-03T10:57:05.643Z,14.35
2023-03-03T10:59:36.734Z,12.13
2023-03-03T11:02:27.878Z,10.52
2023-03-03T11:05:02.337Z,10.95
2023-03-03T11:07:44.633Z,11.55
2023-03-03T11:10:52.385Z,14.05
2023-03-03T11:13:33.928Z,9.75
2023-03-03T11:16:19.510Z,10.15
2023-03-03T11:19:11.535Z,9.60
2023-03-03T11:22:26.067Z,9.50
2023-03-03T11:25:27.609Z,9.02
2023-03-03T11:28:01.443Z,10.20
2023-03-03T11:30:34.527Z,10.00
2023-03-03T11:33:09.663Z,9.68
2023-03-03T11:35:56.042Z,10.05
2023-03-03T11:38:24.005Z,9.27
2023-03-03T11:40:56.734Z,8.68
2023-03-03T11:43:37.812Z,8.60
2023-03-03T11:46:11.746Z,8.98
2023-03-03T11:49:05.258Z,9.50
2023-03-03T11:51:55.000Z,10.07
2023-03-03T11:54:22.709Z,9.25
2023-03-03T11:57:17.203Z,9.85
2023-03-03T11:59:56.154Z,9.95
2023-03-03T12:02:44.160Z,11.55
2023-03-03T12:05:20.673Z,9.20
2023-03-03T12:07:55.074Z,9.75
2023-03-03T12:10:31.127Z,8.82
2023-03-03T12:13:26.198Z,31.27
2023-03-03T12:15:57.388Z,8.88
2023-03-03T12:18:42.573Z,8.90
2023-03-03T12:21:33.199Z,8.60
2023-03-03T12:24:12.563Z,8.98
2023-03-03T12:27:00.127Z,8.77
2023-03-03T12:29:51.379Z,8.55
2023-03-03T12:32:44.008Z,7.80
2023-03-03T12:35:27.888Z,7.55
2023-03-03T12:38:14.044Z,8.73
2023-03-03T12:40:52.348Z,8.63
2023-03-03T12:43:23.161Z,8.18
2023-03-03T12:46:21.071Z,7.88
2023-03-03T12:48:48.826Z,8.48
2023-03-03T12:51:31.625Z,8.05
2023-03-03T12:54:17.918Z,8.80
2023-03-03T12:56:52.997Z,8.68
2023-03-03T12:59:35.961Z,8.00
2023-03-03T13:02:31.592Z,8.52
2023-03-03T13:05:20.409Z,8.45
2023-03-03T13:08:06.462Z,8.43
2023-03-03T13:10:49.554Z,8.90
2023-03-03T13:13:28.142Z,9.85
2023-03-03T13:16:22.271Z,10.02
2023-03-03T13:19:25.164Z,11.55
2023-03-03T13:22:09.625Z,9.20
2023-03-03T13:25:08.033Z,8.40
2023-03-03T13:27:43.579Z,8.57
2023-03-03T13:30:24.720Z,9.18
2023-03-03T13:33:07.991Z,9.52
2023-03-03T13:35:53.207Z,9.25
2023-03-03T13:38:27.454Z,8.57
2023-03-03T13:41:15.791Z,9.32
2023-03-03T13:44:06.496Z,8.45
2023-03-03T13:46:45.788Z,8.77
2023-03-03T13:49:16.139Z,8.88
2023-03-03T13:52:03.196Z,9.15
2023-03-03T13:54:46.250Z,14.82
2023-03-03T13:57:21.775Z,10.00
2023-03-03T14:00:14.568Z,9.98
2023-03-03T14:03:02.760Z,11.13
2023-03-03T14:05:39.301Z,12.63
2023-03-03T14:08:15.283Z,9.70
2023-03-03T14:11:13.503Z,10.35
2023-03-03T14:13:57.906Z,9.35
2023-03-03T14:16:46.842Z,9.75
2023-03-03T14:19:36.951Z,11.50
2023-03-03T14:22:23.973Z,10.73
2023-03-03T14:25:01.823Z,11.20
2023-03-03T14:27:35.765Z,12.23
2023-03-03T14:30:21.968Z,13.05
2023-03-03T14:33:07.695Z,12.60
2023-03-03T14:35:40.343Z,15.45
2023-03-03T14:38:20.199Z,16.23
2023-03-03T14:40:48.578Z,12.65
2023-03-03T14:43:37.489Z,13.88
2023-03-03T14:46:27.216Z,13.82
2023-03-03T14:48:57.906Z,12.98
2023-03-03T14:51:30.217Z,12.40
2023-03-03T14:53:58.521Z,12.65
2023-03-03T14:56:30.452Z,11.93
2023-03-03T14:59:33.706Z,11.95
2023-03-03T15:02:31.042Z,11.60
2023-03-03T15:05:12.765Z,11.20
2023-03-03T15:07:42.070Z,10.85
2023-03-03T15:10:11.994Z,11.63
2023-03-03T15:12:42.505Z,10.75
2023-03-03T15:15:11.634Z,10.57
2023-03-03T15:17:43.500Z,10.43
2023-03-03T15:20:22.179Z,11.25
2023-03-03T15:22:58.930Z,10.25
2023-03-03T15:25:43.310Z,10.00
2023-03-03T15:28:27.804Z,10.45
2023-03-03T15:31:14.743Z,10.20
2023-03-03T15:33:46.745Z,9.82
2023-03-03T15:36:32.268Z,10.35
2023-03-03T15:39:18.518Z,9.88
2023-03-03T15:42:08.977Z,10.63
2023-03-03T15:44:42.612Z,10.05
2023-03-03T15:47:22.044Z,10.00
2023-03-03T15:49:55.747Z,11.00
2023-03-03T15:52:29.195Z,24.95
2023-03-03T15:55:14.643Z,11.60
2023-03-03T15:57:57.413Z,12.52
2023-03-03T16:00:31.813Z,11.30
2023-03-03T16:03:09.161Z,13.50
2023-03-03T16:05:50.176Z,10.35
2023-03-03T16:08:23.430Z,10.43
2023-03-03T16:10:54.374Z,10.63
2023-03-03T16:13:54.509Z,11.57
2023-03-03T16:16:51.417Z,11.65
2023-03-03T16:19:41.497Z,10.70
2023-03-03T16:22:37.730Z,10.40
2023-03-03T16:25:17.617Z,10.98
2023-03-03T16:28:22.800Z,10.85
2023-03-03T16:31:29.727Z,10.57
2023-03-03T16:34:19.895Z,10.80
2023-03-03T16:37:09.055Z,9.65
2023-03-03T16:39:46.332Z,10.25
2023-03-03T16:42:21.755Z,10.27
2023-03-03T16:45:34.316Z,10.90
2023-03-03T16:48:20.626Z,10.77
2023-03-03T16:51:25.468Z,9.55
2023-03-03T16:54:09.235Z,10.13
2023-03-03T16:56:49.144Z,10.45
2023-03-03T16:59:47.113Z,11.57
2023-03-03T17:02:58.888Z,10.73
2023-03-03T17:05:48.418Z,10.70
2023-03-03T17:11:36.168Z,10.60
2023-03-03T17:14:29.775Z,12.07
2023-03-03T17:17:03.382Z,10.82
2023-03-03T17:19:47.335Z,11.88
2023-03-03T17:22:26.446Z,11.90
2023-03-03T17:25:16.108Z,12.07
2023-03-03T17:27:51.217Z,11.70
2023-03-03T17:30:22.640Z,12.77
2023-03-03T17:33:07.389Z,14.93
2023-03-03T17:35:50.892Z,11.68
2023-03-03T17:38:37.114Z,14.35
2023-03-03T17:41:16.601Z,11.07
2023-03-03T17:44:12.525Z,11.02
2023-03-03T17:46:55.581Z,11.30
2023-03-03T17:49:34.784Z,10.55
2023-03-03T17:52:07.511Z,10.60
2023-03-03T17:54:49.184Z,11.18
2023-03-03T17:57:35.096Z,10.57
2023-03-03T18:00:22.668Z,11.60
2023-03-03T18:02:50.478Z,11.38
2023-03-03T18:06:02.979Z,10.88
2023-03-03T18:08:57.512Z,10.32
2023-03-03T18:12:09.469Z,11.05
2023-03-03T18:14:53.780Z,10.90
2023-03-03T18:17:39.662Z,10.48
2023-03-03T18:20:22.770Z,10.90
2023-03-03T18:22:52.813Z,10.43
2023-03-03T18:28:20.260Z,11.02
2023-03-03T18:30:59.671Z,10.50
2023-03-03T18:33:52.452Z,10.63
2023-03-03T18:36:29.309Z,10.43
2023-03-03T18:38:58.826Z,9.57
2023-03-03T18:41:53.778Z,8.95
2023-03-03T18:44:30.378Z,9.05
2023-03-03T18:47:02.585Z,8.23
2023-03-03T18:49:52.693Z,8.23
2023-03-03T18:52:24.499Z,8.48
2023-03-03T18:55:23.233Z,8.25
2023-03-03T18:58:31.638Z,9.32
2023-03-03T19:01:39.212Z,8.32
2023-03-03T19:04:17.284Z,8.90
2023-03-03T19:06:49.722Z,8.57
2023-03-03T19:09:45.000Z,8.50
2023-03-03T19:12:43.354Z,8.23
2023-03-03T19:15:32.150Z,9.23
2023-03-03T19:18:28.050Z,9.30
2023-03-03T19:21:26.246Z,9.57
2023-03-03T19:24:00.022Z,9.57
2023-03-03T19:26:30.877Z,9.55
2023-03-03T19:29:33.649Z,9.73
2023-03-03T19:32:20.241Z,9.35
2023-03-03T19:34:56.919Z,9.13
2023-03-03T19:37:33.724Z,9.38
2023-03-03T19:40:20.038Z,10.30
2023-03-03T19:43:08.981Z,9.85
2023-03-03T19:45:42.430Z,9.63
2023-03-03T19:48:24.844Z,9.75
2023-03-03T19:51:04.556Z,9.23
2023-03-03T19:53:44.084Z,10.13
2023-03-03T19:56:14.499Z,10.05
2023-03-03T19:59:00.802Z,10.02
2023-03-03T20:02:11.590Z,10.68
2023-03-03T20:04:52.319Z,9.98
2023-03-03T20:07:24.124Z,10.88
2023-03-03T20:10:14.830Z,9.55
2023-03-03T20:13:02.579Z,9.95
2023-03-03T20:15:37.022Z,11.20
2023-03-03T20:18:28.816Z,9.45
2023-03-03T20:21:02.616Z,9.80
2023-03-03T20:23:30.639Z,10.15
2023-03-03T20:26:07.850Z,9.70
2023-03-03T20:28:57.461Z,10.18
2023-03-03T20:31:33.166Z,9.15
2023-03-03T20:34:14.423Z,9.85
2023-03-03T20:36:59.468Z,8.73
2023-03-03T20:40:04.821Z,8.30
2023-03-03T20:42:52.854Z,8.65
2023-03-03T20:45:47.724Z,8.88
2023-03-03T20:48:52.440Z,8.35
2023-03-03T20:51:30.074Z,9.35
2023-03-03T20:54:09.811Z,9.85
2023-03-03T20:56:48.851Z,9.02
2023-03-03T20:59:41.689Z,10.25
2023-03-03T21:02:34.216Z,9.15
2023-03-03T21:05:22.664Z,9.50
2023-03-03T21:07:56.833Z,9.32
2023-03-03T21:10:29.286Z,9.98
2023-03-03T21:12:59.246Z,9.77
2023-03-03T21:15:34.085Z,10.13
2023-03-03T21:18:21.287Z,9.48
2023-03-03T21:20:49.252Z,10.00
2023-03-03T21:23:17.401Z,9.95
2023-03-03T21:25:52.313Z,9.45
2023-03-03T21:28:22.994Z,8.98
2023-03-03T21:31:08.119Z,8.95
2023-03-03T21:33:56.180Z,9.70
2023-03-03T21:36:24.787Z,9.60
2023-03-03T21:38:54.052Z,8.82
2023-03-03T21:41:22.193Z,8.63
2023-03-03T21:43:52.685Z,8.80
2023-03-03T21:46:25.389Z,8.25
2023-03-03T21:49:12.860Z,8.23
2023-03-03T21:51:40.361Z,9.23
2023-03-03T21:54:07.848Z,8.75
2023-03-03T21:56:38.001Z,7.85
2023-03-03T21:59:06.683Z,8.30
2023-03-03T22:01:36.464Z,8.75
2023-03-03T22:04:06.009Z,8.15
2023-03-03T22:06:34.568Z,8.57
2023-03-03T22:09:04.811Z,8.98
2023-03-03T22:14:01.293Z,7.75
2023-03-03T22:16:28.961Z,8.77
2023-03-03T22:18:56.581Z,7.80
2023-03-03T22:21:24.935Z,8.45
2023-03-03T22:23:52.586Z,8.73
2023-03-03T22:26:21.792Z,8.40
2023-03-03T22:28:49.974Z,8.35
2023-03-03T22:31:19.114Z,9.43
2023-03-03T22:33:48.376Z,8.48
2023-03-03T22:36:16.542Z,8.75
2023-03-03T22:38:44.044Z,8.23
2023-03-03T22:41:12.048Z,7.80
2023-03-03T22:43:39.717Z,8.40
2023-03-03T22:46:07.297Z,7.70
2023-03-03T22:48:36.548Z,8.18
2023-03-03T22:51:04.956Z,8.00
2023-03-03T22:53:46.599Z,8.18
2023-03-03T22:56:14.222Z,7.40
2023-03-03T22:58:42.278Z,8.23
2023-03-03T23:01:09.876Z,7.68
2023-03-03T23:03:37.528Z,7.57
2023-03-03T23:06:05.527Z,7.80
2023-03-03T23:08:33.037Z,8.07
2023-03-03T23:11:00.688Z,8.15
2023-03-03T23:16:00.319Z,8.27
2023-03-03T23:18:28.729Z,8.52
2023-03-03T23:20:56.940Z,8.80
2023-03-03T23:23:25.043Z,8.60
2023-03-03T23:25:52.835Z,9.52
2023-03-03T23:28:20.920Z,8.52
2023-03-03T23:30:49.252Z,8.60
2023-03-03T23:33:19.460Z,16.77
2023-03-03T23:35:49.466Z,11.57
2023-03-03T23:38:17.875Z,9.70
2023-03-03T23:40:48.316Z,9.05
2023-03-03T23:43:16.204Z,8.23
2023-03-03T23:45:44.700Z,8.70
2023-03-03T23:48:13.836Z,9.48
2023-03-03T23:50:41.374Z,9.60
2023-03-03T23:53:09.360Z,10.27
2023-03-03T23:55:38.010Z,12.57
2023-03-03T23:58:06.028Z,9.45
